Time;durP1;ratioP1;P1;durP2;ratioP2;P2;SDS_P1;SDS_P2;PMS_P1;PMS_P2;Temp;Humidity;BMP_temperature;BMP_pressure;BME280_temperature;BME280_humidity;BME280_pressure;Samples;Min_cycle;Max_cycle;Signal;HPM_P1;HPM_P2
2022/09/23 00:01:52;;;;;;;;;;;12.50;85.90;;;;;;5047009;28;19916;-70
2022/09/23 00:04:18;;;;;;;;;;;12.50;85.90;;;;;;5047641;28;19920;-72
2022/09/23 00:06:44;;;;;;;;;;;12.50;85.90;;;;;;5047640;28;19913;-71
2022/09/23 00:09:09;;;;;;;;;;;12.50;86.00;;;;;;5047559;28;19956;-70
2022/09/23 00:11:35;;;;;;;;;;;12.50;85.80;;;;;;5047270;28;20012;-70
2022/09/23 00:14:01;;;;;;;;;;;12.50;85.90;;;;;;5045268;28;19917;-71
2022/09/23 00:16:28;;;;;;;;;;;12.50;86.00;;;;;;5046585;28;20393;-71
2022/09/23 00:18:54;;;;;;;;;;;12.50;85.90;;;;;;5047196;28;19939;-71
2022/09/23 00:21:20;;;;;;;;;;;12.50;86.00;;;;;;5047975;28;20346;-71
2022/09/23 00:23:46;;;;;;;;;;;12.50;85.90;;;;;;5046657;28;19916;-71
2022/09/23 00:26:12;;;;;;;;;;;12.50;86.00;;;;;;5046257;28;19917;-71
2022/09/23 00:28:38;;;;;;;;;;;12.40;85.90;;;;;;5046891;28;20021;-70
2022/09/23 00:31:04;;;;;;;;;;;12.50;86.00;;;;;;5046380;28;19956;-70
2022/09/23 00:33:30;;;;;;;;;;;12.50;86.00;;;;;;5047269;28;19917;-70
2022/09/23 00:35:59;;;;;;;;;;;12.50;86.00;;;;;;5047498;28;20502;-70
2022/09/23 00:38:24;;;;;;;;;;;12.50;85.90;;;;;;5048144;28;19991;-70
2022/09/23 00:40:50;;;;;;;;;;;12.50;86.00;;;;;;5047787;28;19999;-70
2022/09/23 00:43:16;;;;;;;;;;;12.40;85.90;;;;;;5047326;28;20635;-70
2022/09/23 00:45:45;;;;;;;;;;;12.40;86.00;;;;;;5046629;28;20688;-70
2022/09/23 00:48:13;;;;;;;;;;;12.40;86.00;;;;;;5046806;28;19912;-70
2022/09/23 00:50:40;;;;;;;;;;;12.40;86.00;;;;;;5046042;28;19960;-70
2022/09/23 00:53:08;;;;;;;;;;;12.40;86.00;;;;;;5046728;28;20395;-71
2022/09/23 00:55:39;;;;;;;;;;;12.40;86.00;;;;;;5042817;28;19913;-70
2022/09/23 00:58:06;;;;;;;;;;;12.40;86.00;;;;;;5046891;28;19963;-71
2022/09/23 01:00:32;;;;;;;;;;;12.40;86.00;;;;;;5046093;28;19965;-70
2022/09/23 01:02:59;;;;;;;;;;;12.40;86.00;;;;;;5045246;28;19920;-70
2022/09/23 01:05:25;;;;;;;;;;;12.40;86.00;;;;;;5045652;28;19916;-70
2022/09/23 01:07:51;;;;;;;;;;;12.40;86.00;;;;;;5046370;28;19920;-70
2022/09/23 01:10:17;;;;;;;;;;;12.40;86.00;;;;;;5046634;28;19909;-70
2022/09/23 01:13:00;;;;;;;;;;;12.40;86.00;;;;;;5045670;28;20027;-70
2022/09/23 01:15:31;;;;;;;;;;;12.40;86.00;;;;;;5046423;28;19975;-70
2022/09/23 01:18:15;;;;;;;;;;;12.40;86.00;;;;;;5046151;28;19913;-70
2022/09/23 01:20:58;;;;;;;;;;;12.40;86.10;;;;;;5045315;28;19966;-70
2022/09/23 01:23:38;;;;;;;;;;;12.40;86.10;;;;;;5045544;28;19923;-70
2022/09/23 01:26:19;;;;;;;;;;;12.40;86.00;;;;;;5046035;28;20381;-70
2022/09/23 01:28:44;;;;;;;;;;;12.40;85.90;;;;;;5045795;28;20082;-70
2022/09/23 01:31:12;;;;;;;;;;;12.40;85.90;;;;;;5046001;28;19925;-71
2022/09/23 01:33:44;;;;;;;;;;;12.40;85.90;;;;;;5045994;28;20376;-70
2022/09/23 01:36:17;;;;;;;;;;;12.40;85.90;;;;;;5045963;28;19978;-70
2022/09/23 01:38:43;;;;;;;;;;;12.40;85.90;;;;;;5044500;28;19943;-70
2022/09/23 01:41:47;;;;;;;;;;;12.30;85.90;;;;;;5045354;28;20306;-71
2022/09/23 01:44:15;;;;;;;;;;;12.30;85.90;;;;;;4962597;28;19921;-70
2022/09/23 01:46:47;;;;;;;;;;;12.30;85.90;;;;;;4964327;28;19921;-70
2022/09/23 01:49:26;;;;;;;;;;;12.30;85.90;;;;;;5005755;28;19923;-70
2022/09/23 01:51:56;;;;;;;;;;;12.30;85.90;;;;;;5045726;28;20031;-70
2022/09/23 01:54:25;;;;;;;;;;;12.40;86.00;;;;;;5023051;28;19920;-70
2022/09/23 01:56:53;;;;;;;;;;;12.30;85.90;;;;;;5043899;28;19913;-70
2022/09/23 01:59:36;;;;;;;;;;;12.30;85.90;;;;;;5045452;28;20002;-70
2022/09/23 02:02:05;;;;;;;;;;;12.30;86.00;;;;;;5045496;28;19912;-71
2022/09/23 02:04:36;;;;;;;;;;;12.30;85.90;;;;;;5045392;28;20421;-70
2022/09/23 02:07:04;;;;;;;;;;;12.30;86.00;;;;;;5045087;28;19917;-70
2022/09/23 02:09:36;;;;;;;;;;;12.30;86.00;;;;;;5045656;28;20007;-71
2022/09/23 02:12:04;;;;;;;;;;;12.30;86.00;;;;;;5045145;28;20688;-70
2022/09/23 02:14:51;;;;;;;;;;;12.30;86.00;;;;;;5044757;28;19963;-70
2022/09/23 02:17:23;;;;;;;;;;;12.30;85.90;;;;;;5044864;28;19970;-71
2022/09/23 02:19:51;;;;;;;;;;;12.30;86.00;;;;;;5045029;28;19970;-70
2022/09/23 02:22:21;;;;;;;;;;;12.30;86.00;;;;;;5046203;28;19920;-71
2022/09/23 02:24:48;;;;;;;;;;;12.30;86.00;;;;;;5026481;28;19917;-70
2022/09/23 02:27:24;;;;;;;;;;;12.30;86.00;;;;;;5027951;28;20026;-71
2022/09/23 02:29:56;;;;;;;;;;;12.30;86.00;;;;;;5044238;28;19919;-70
2022/09/23 02:32:25;;;;;;;;;;;12.30;85.90;;;;;;5044511;28;19920;-70
2022/09/23 02:35:09;;;;;;;;;;;12.20;85.90;;;;;;5044657;28;19913;-70
2022/09/23 02:37:46;;;;;;;;;;;12.20;85.90;;;;;;5044333;28;19920;-70
2022/09/23 02:40:30;;;;;;;;;;;12.20;85.90;;;;;;5044450;28;19927;-70
2022/09/23 02:43:19;;;;;;;;;;;12.20;85.90;;;;;;5043560;28;19927;-70
2022/09/23 02:45:45;;;;;;;;;;;12.20;85.90;;;;;;5035604;28;20007;-70
2022/09/23 02:48:21;;;;;;;;;;;12.20;86.00;;;;;;5043285;28;19919;-70
2022/09/23 02:50:47;;;;;;;;;;;12.20;85.80;;;;;;5044184;28;19917;-70
2022/09/23 02:53:15;;;;;;;;;;;12.20;86.00;;;;;;5044564;28;19981;-70
2022/09/23 02:55:41;;;;;;;;;;;12.20;85.90;;;;;;5026806;28;19920;-70
2022/09/23 02:58:08;;;;;;;;;;;12.20;86.00;;;;;;5044464;28;19909;-70
2022/09/23 03:00:42;;;;;;;;;;;12.20;85.90;;;;;;5043920;28;19923;-70
2022/09/23 03:03:26;;;;;;;;;;;12.20;86.00;;;;;;5043371;28;20786;-70
2022/09/23 03:05:53;;;;;;;;;;;12.20;85.90;;;;;;5044562;28;19909;-71
2022/09/23 03:08:24;;;;;;;;;;;12.20;86.00;;;;;;5026242;28;19917;-70
2022/09/23 03:11:03;;;;;;;;;;;12.20;86.00;;;;;;5044075;28;19917;-71
2022/09/23 03:13:47;;;;;;;;;;;12.20;86.00;;;;;;5044314;28;19983;-71
2022/09/23 03:16:19;;;;;;;;;;;12.20;86.00;;;;;;5044647;28;19951;-70
2022/09/23 03:18:57;;;;;;;;;;;12.20;86.00;;;;;;5043706;28;19998;-70
2022/09/23 03:21:23;;;;;;;;;;;12.20;86.00;;;;;;5041083;28;20650;-71
2022/09/23 03:23:49;;;;;;;;;;;12.20;85.90;;;;;;5043812;28;20027;-71
2022/09/23 03:26:17;;;;;;;;;;;12.20;86.00;;;;;;5046247;28;19975;-70
2022/09/23 03:28:44;;;;;;;;;;;12.20;86.00;;;;;;5047267;28;19920;-71
2022/09/23 03:31:13;;;;;;;;;;;12.20;86.00;;;;;;5029915;28;19917;-71
2022/09/23 03:33:41;;;;;;;;;;;12.20;86.10;;;;;;5047237;28;19913;-71
2022/09/23 03:38:55;;;;;;;;;;;12.10;86.00;;;;;;5047209;28;20476;-71
2022/09/23 03:41:26;;;;;;;;;;;12.10;86.00;;;;;;5046751;28;19913;-71
2022/09/23 03:43:52;;;;;;;;;;;12.10;86.00;;;;;;5047215;28;20027;-70
2022/09/23 03:46:17;;;;;;;;;;;12.10;86.00;;;;;;5047540;28;19987;-71
2022/09/23 03:48:44;;;;;;;;;;;12.10;86.10;;;;;;5047739;28;19915;-70
2022/09/23 03:51:18;;;;;;;;;;;12.10;86.10;;;;;;5047166;28;19916;-70
2022/09/23 03:53:43;;;;;;;;;;;12.10;86.10;;;;;;5048191;28;19913;-70
2022/09/23 03:56:10;;;;;;;;;;;12.10;86.10;;;;;;5043838;28;20395;-70
2022/09/23 03:58:36;;;;;;;;;;;12.00;86.00;;;;;;5047987;28;20500;-70
2022/09/23 04:01:02;;;;;;;;;;;12.10;86.10;;;;;;5030096;28;19970;-70
2022/09/23 04:03:28;;;;;;;;;;;12.00;86.10;;;;;;5047802;28;20309;-70
2022/09/23 04:05:54;;;;;;;;;;;12.00;86.10;;;;;;5047554;28;19990;-70
2022/09/23 04:08:19;;;;;;;;;;;12.00;86.10;;;;;;5047602;28;19916;-70
2022/09/23 04:10:44;;;;;;;;;;;12.00;86.20;;;;;;5046821;28;19994;-70
2022/09/23 04:13:11;;;;;;;;;;;12.00;86.20;;;;;;5047634;28;19919;-70
2022/09/23 04:15:36;;;;;;;;;;;12.00;86.10;;;;;;5047590;28;20514;-70
2022/09/23 04:18:02;;;;;;;;;;;12.00;86.20;;;;;;5046799;28;19948;-70
2022/09/23 04:20:29;;;;;;;;;;;12.00;86.20;;;;;;5046669;28;19926;-70
2022/09/23 04:22:55;;;;;;;;;;;12.00;86.30;;;;;;5046831;28;19923;-70
2022/09/23 04:25:20;;;;;;;;;;;12.00;86.20;;;;;;5047881;28;19920;-70
2022/09/23 04:27:46;;;;;;;;;;;12.00;86.30;;;;;;5046657;28;20347;-70
2022/09/23 04:30:11;;;;;;;;;;;12.00;86.30;;;;;;5047205;28;19940;-70
2022/09/23 04:32:37;;;;;;;;;;;12.00;86.30;;;;;;5028945;28;19912;-70
2022/09/23 04:35:03;;;;;;;;;;;12.00;86.40;;;;;;5046580;28;19959;-70
2022/09/23 04:37:29;;;;;;;;;;;11.90;86.30;;;;;;5045539;28;19943;-70
2022/09/23 04:39:55;;;;;;;;;;;11.90;86.20;;;;;;5046886;28;19971;-71
2022/09/23 04:42:20;;;;;;;;;;;11.90;86.30;;;;;;5045982;28;20006;-70
2022/09/23 04:44:46;;;;;;;;;;;11.90;86.30;;;;;;5047692;28;20423;-70
2022/09/23 04:47:11;;;;;;;;;;;11.90;86.20;;;;;;5046750;28;19908;-70
2022/09/23 04:49:37;;;;;;;;;;;11.90;86.20;;;;;;5046611;28;19947;-70
2022/09/23 04:52:04;;;;;;;;;;;11.90;86.20;;;;;;5045786;28;19917;-70
2022/09/23 04:54:29;;;;;;;;;;;11.90;86.30;;;;;;5047368;28;20633;-70
2022/09/23 04:56:55;;;;;;;;;;;11.90;86.30;;;;;;5047462;28;19913;-70
2022/09/23 04:59:21;;;;;;;;;;;11.90;86.30;;;;;;5046709;28;20486;-70
2022/09/23 05:01:46;;;;;;;;;;;11.90;86.30;;;;;;5046518;28;19939;-70
2022/09/23 05:04:12;;;;;;;;;;;11.90;86.30;;;;;;5046496;28;19913;-70
2022/09/23 05:06:38;;;;;;;;;;;11.90;86.30;;;;;;5028345;28;19920;-70
2022/09/23 05:09:05;;;;;;;;;;;11.90;86.30;;;;;;5046830;28;19917;-70
2022/09/23 05:11:31;;;;;;;;;;;11.90;86.30;;;;;;5046225;28;19963;-71
2022/09/23 05:13:57;;;;;;;;;;;11.90;86.20;;;;;;5046781;28;19956;-70
2022/09/23 05:16:23;;;;;;;;;;;11.90;86.30;;;;;;5046357;28;19913;-70
2022/09/23 05:18:49;;;;;;;;;;;11.90;86.20;;;;;;5047155;28;19913;-70
2022/09/23 05:21:16;;;;;;;;;;;11.90;86.20;;;;;;5046098;28;19984;-70
2022/09/23 05:23:45;;;;;;;;;;;11.80;86.10;;;;;;5046313;28;20366;-70
2022/09/23 05:26:12;;;;;;;;;;;11.80;86.20;;;;;;5045400;28;20053;-70
2022/09/23 05:28:38;;;;;;;;;;;11.90;86.20;;;;;;5046771;28;19913;-70
2022/09/23 05:31:04;;;;;;;;;;;11.80;86.20;;;;;;5046430;28;19913;-70
2022/09/23 05:33:30;;;;;;;;;;;11.80;86.20;;;;;;5045993;28;19936;-70
2022/09/23 05:35:55;;;;;;;;;;;11.80;86.20;;;;;;5046319;28;20519;-70
2022/09/23 05:38:21;;;;;;;;;;;11.80;86.10;;;;;;5045774;28;19921;-70
2022/09/23 05:40:53;;;;;;;;;;;11.80;86.20;;;;;;5045850;28;20579;-71
2022/09/23 05:43:19;;;;;;;;;;;11.80;86.20;;;;;;5046090;28;19982;-70
2022/09/23 05:45:44;;;;;;;;;;;11.80;86.10;;;;;;5045929;28;19909;-70
2022/09/23 05:48:10;;;;;;;;;;;11.80;86.10;;;;;;5045490;28;19999;-70
2022/09/23 05:50:35;;;;;;;;;;;11.80;86.20;;;;;;5045547;28;19986;-70
2022/09/23 05:53:00;;;;;;;;;;;11.80;86.10;;;;;;5045967;28;20011;-70
2022/09/23 05:55:26;;;;;;;;;;;11.80;86.20;;;;;;5042468;28;19962;-70
2022/09/23 05:57:51;;;;;;;;;;;11.80;86.20;;;;;;5027574;28;20240;-70
2022/09/23 06:00:17;;;;;;;;;;;11.80;86.10;;;;;;5045564;28;19916;-70
2022/09/23 06:02:42;;;;;;;;;;;11.80;86.10;;;;;;5045083;28;19912;-70
2022/09/23 06:05:08;;;;;;;;;;;11.80;86.10;;;;;;5045354;28;20149;-70
2022/09/23 06:07:34;;;;;;;;;;;11.80;86.10;;;;;;5045421;28;20045;-70
2022/09/23 06:09:59;;;;;;;;;;;11.80;86.10;;;;;;5045796;28;19923;-70
2022/09/23 06:12:24;;;;;;;;;;;11.80;86.10;;;;;;5045219;28;19943;-73
2022/09/23 06:14:51;;;;;;;;;;;11.80;86.10;;;;;;5045173;28;19913;-73
2022/09/23 06:17:17;;;;;;;;;;;11.80;86.10;;;;;;5044994;28;20107;-73
2022/09/23 06:19:42;;;;;;;;;;;11.80;86.10;;;;;;5044120;28;20027;-73
2022/09/23 06:22:09;;;;;;;;;;;11.80;86.20;;;;;;5044298;28;19919;-73
2022/09/23 06:24:35;;;;;;;;;;;11.80;86.10;;;;;;5042084;28;19951;-73
2022/09/23 06:27:01;;;;;;;;;;;11.80;86.10;;;;;;5046285;28;20002;-73
2022/09/23 06:29:27;;;;;;;;;;;11.80;86.70;;;;;;5044957;28;20339;-73
2022/09/23 06:31:52;;;;;;;;;;;11.80;86.00;;;;;;5026909;28;19917;-73
2022/09/23 06:34:18;;;;;;;;;;;11.90;86.10;;;;;;5044824;28;20515;-73
2022/09/23 06:36:43;;;;;;;;;;;11.90;86.00;;;;;;5045198;28;19920;-74
2022/09/23 06:39:09;;;;;;;;;;;11.90;86.00;;;;;;5045105;28;19925;-73
2022/09/23 06:41:34;;;;;;;;;;;11.90;85.90;;;;;;5026778;28;19915;-73
2022/09/23 06:44:00;;;;;;;;;;;11.90;85.90;;;;;;5044326;28;19920;-74
2022/09/23 06:46:25;;;;;;;;;;;11.90;85.80;;;;;;5044384;28;20011;-73
2022/09/23 06:48:51;;;;;;;;;;;11.90;85.80;;;;;;5044513;28;20383;-74
2022/09/23 06:51:20;;;;;;;;;;;12.00;85.80;;;;;;5043700;28;19917;-74
2022/09/23 06:53:47;;;;;;;;;;;12.00;85.80;;;;;;5043987;28;19917;-74
2022/09/23 06:56:13;;;;;;;;;;;12.00;85.60;;;;;;5039412;28;20513;-72
2022/09/23 06:58:38;;;;;;;;;;;12.00;85.60;;;;;;5044439;28;19913;-73
2022/09/23 07:01:11;;;;;;;;;;;12.10;85.50;;;;;;5029104;28;19916;-73
2022/09/23 07:03:37;;;;;;;;;;;12.10;85.40;;;;;;5043935;28;19913;-73
2022/09/23 07:06:03;;;;;;;;;;;12.20;85.40;;;;;;5048514;28;19987;-73
2022/09/23 07:08:29;;;;;;;;;;;12.20;85.20;;;;;;5043226;28;19958;-73
2022/09/23 07:10:55;;;;;;;;;;;12.20;85.20;;;;;;5048406;28;20406;-73
2022/09/23 07:13:21;;;;;;;;;;;12.20;85.10;;;;;;5048767;28;20416;-73
2022/09/23 07:15:50;;;;;;;;;;;12.30;85.10;;;;;;5048794;28;19916;-73
2022/09/23 07:18:16;;;;;;;;;;;12.30;85.00;;;;;;5030644;28;19917;-73
2022/09/23 07:20:42;;;;;;;;;;;12.40;84.90;;;;;;5042706;28;19921;-73
2022/09/23 07:23:07;;;;;;;;;;;12.40;84.80;;;;;;5048959;28;20431;-73
2022/09/23 07:25:33;;;;;;;;;;;12.40;84.70;;;;;;5047078;28;19913;-73
2022/09/23 07:27:59;;;;;;;;;;;12.50;84.70;;;;;;5048378;28;19917;-73
2022/09/23 07:30:25;;;;;;;;;;;12.50;84.60;;;;;;5048068;28;19920;-73
2022/09/23 07:32:51;;;;;;;;;;;12.60;84.60;;;;;;5048353;28;20377;-73
2022/09/23 07:35:17;;;;;;;;;;;12.60;84.50;;;;;;5046719;28;20342;-73
2022/09/23 07:37:43;;;;;;;;;;;12.60;84.40;;;;;;5046861;28;19925;-73
2022/09/23 07:40:09;;;;;;;;;;;12.60;84.30;;;;;;5047808;28;19974;-73
2022/09/23 07:42:34;;;;;;;;;;;12.70;84.30;;;;;;5047885;28;20031;-73
2022/09/23 07:45:01;;;;;;;;;;;12.70;84.30;;;;;;5048089;28;19912;-73
2022/09/23 07:47:27;;;;;;;;;;;12.70;84.30;;;;;;5048303;28;20336;-73
2022/09/23 07:49:53;;;;;;;;;;;12.70;84.10;;;;;;5049179;28;19919;-73
2022/09/23 07:52:19;;;;;;;;;;;12.80;84.10;;;;;;5048551;28;19917;-73
2022/09/23 07:54:45;;;;;;;;;;;12.80;84.10;;;;;;5042498;28;19921;-73
2022/09/23 07:57:11;;;;;;;;;;;12.90;84.10;;;;;;5048245;28;19912;-73
2022/09/23 07:59:36;;;;;;;;;;;12.90;84.00;;;;;;5047907;28;20398;-73
2022/09/23 08:02:01;;;;;;;;;;;12.90;83.90;;;;;;5047821;28;19919;-72
2022/09/23 08:04:30;;;;;;;;;;;13.00;83.80;;;;;;5046423;28;20406;-72
2022/09/23 08:06:57;;;;;;;;;;;13.10;83.70;;;;;;5047570;28;20381;-72
2022/09/23 08:09:24;;;;;;;;;;;13.10;83.60;;;;;;5047312;28;19912;-72
2022/09/23 08:11:49;;;;;;;;;;;13.20;83.50;;;;;;5047346;28;19913;-72
2022/09/23 08:14:16;;;;;;;;;;;13.20;83.30;;;;;;5048184;28;19913;-73
2022/09/23 08:16:43;;;;;;;;;;;13.30;83.30;;;;;;5041815;28;19912;-72
2022/09/23 08:19:09;;;;;;;;;;;13.40;83.20;;;;;;5029803;28;20555;-73
2022/09/23 08:21:38;;;;;;;;;;;13.40;83.10;;;;;;5047427;28;19913;-70
2022/09/23 08:24:06;;;;;;;;;;;13.40;83.00;;;;;;5029218;28;19964;-70
2022/09/23 08:26:33;;;;;;;;;;;13.50;83.20;;;;;;5047345;28;19923;-70
2022/09/23 08:28:58;;;;;;;;;;;13.50;83.20;;;;;;5048361;28;20433;-70
2022/09/23 08:31:24;;;;;;;;;;;13.60;82.90;;;;;;5051606;28;19913;-70
2022/09/23 08:33:56;;;;;;;;;;;13.60;82.80;;;;;;5047522;28;19928;-70
2022/09/23 08:36:23;;;;;;;;;;;13.60;82.80;;;;;;5047091;28;19912;-70
2022/09/23 08:38:48;;;;;;;;;;;13.70;82.80;;;;;;5046566;28;19943;-70
2022/09/23 08:41:13;;;;;;;;;;;13.80;82.80;;;;;;5028577;28;20505;-70
2022/09/23 08:43:44;;;;;;;;;;;13.80;82.70;;;;;;5047118;28;20004;-70
2022/09/23 08:46:09;;;;;;;;;;;13.80;82.60;;;;;;5046830;28;19921;-70
2022/09/23 08:48:37;;;;;;;;;;;13.80;82.60;;;;;;5046968;28;19919;-70
2022/09/23 08:51:24;;;;;;;;;;;13.90;82.40;;;;;;5046542;28;20391;-70
2022/09/23 08:53:49;;;;;;;;;;;14.00;82.50;;;;;;5046965;28;19920;-70
2022/09/23 08:56:16;;;;;;;;;;;14.00;82.30;;;;;;5042185;28;20482;-70
2022/09/23 08:58:42;;;;;;;;;;;14.10;82.30;;;;;;5046774;28;20035;-70
2022/09/23 09:01:08;;;;;;;;;;;14.10;82.20;;;;;;5046962;28;20571;-70
2022/09/23 09:03:57;;;;;;;;;;;14.10;82.10;;;;;;5047326;28;19912;-70
2022/09/23 09:06:32;;;;;;;;;;;14.20;82.00;;;;;;5039066;28;19917;-70
2022/09/23 09:09:02;;;;;;;;;;;14.20;82.00;;;;;;5046820;28;19920;-70
2022/09/23 09:11:44;;;;;;;;;;;14.20;81.90;;;;;;5046234;28;20373;-70
2022/09/23 09:14:10;;;;;;;;;;;14.30;81.90;;;;;;5046356;28;20291;-69
2022/09/23 09:16:46;;;;;;;;;;;14.30;81.90;;;;;;5046951;28;19967;-70
2022/09/23 09:19:39;;;;;;;;;;;14.40;81.80;;;;;;5046933;28;19924;-70
2022/09/23 09:22:06;;;;;;;;;;;14.50;82.00;;;;;;5013239;28;19917;-70
2022/09/23 09:24:34;;;;;;;;;;;14.50;81.60;;;;;;5046137;28;19913;-70
2022/09/23 09:27:04;;;;;;;;;;;14.60;81.70;;;;;;5046536;28;19916;-70
2022/09/23 09:29:37;;;;;;;;;;;14.60;81.60;;;;;;5046255;28;19920;-70
2022/09/23 09:32:17;;;;;;;;;;;14.60;81.50;;;;;;5045286;28;19955;-70
2022/09/23 09:34:46;;;;;;;;;;;14.60;81.50;;;;;;5045465;28;20369;-70
2022/09/23 09:37:26;;;;;;;;;;;14.70;81.50;;;;;;5045835;28;19913;-70
2022/09/23 09:39:52;;;;;;;;;;;14.70;81.50;;;;;;5046280;28;20073;-70
2022/09/23 09:42:19;;;;;;;;;;;14.80;81.50;;;;;;5027865;28;20431;-71
2022/09/23 09:44:51;;;;;;;;;;;14.80;81.30;;;;;;5045888;28;19913;-70
2022/09/23 09:47:22;;;;;;;;;;;14.90;81.30;;;;;;5045719;28;19916;-70
2022/09/23 09:49:50;;;;;;;;;;;14.90;81.30;;;;;;5045574;28;19916;-70
2022/09/23 09:52:19;;;;;;;;;;;14.90;81.20;;;;;;5045884;28;19928;-70
2022/09/23 09:54:45;;;;;;;;;;;15.00;81.30;;;;;;5040388;28;20314;-71
2022/09/23 09:57:17;;;;;;;;;;;15.00;80.90;;;;;;5044874;28;19982;-70
2022/09/23 09:59:43;;;;;;;;;;;15.10;80.90;;;;;;5044579;28;19921;-70
2022/09/23 10:02:13;;;;;;;;;;;15.20;80.90;;;;;;5043506;28;20336;-71
2022/09/23 10:04:39;;;;;;;;;;;15.20;80.80;;;;;;5044164;28;19912;-70
2022/09/23 10:07:06;;;;;;;;;;;15.30;80.60;;;;;;5044694;28;19913;-71
2022/09/23 10:09:33;;;;;;;;;;;15.40;80.40;;;;;;5044969;28;20479;-70
2022/09/23 10:12:09;;;;;;;;;;;15.40;80.40;;;;;;5044949;28;20015;-70
2022/09/23 10:14:35;;;;;;;;;;;15.40;80.10;;;;;;5045667;28;20010;-70
2022/09/23 10:17:04;;;;;;;;;;;15.50;80.30;;;;;;5045975;28;19999;-70
2022/09/23 10:19:30;;;;;;;;;;;15.60;80.00;;;;;;5045513;28;19921;-70
2022/09/23 10:21:59;;;;;;;;;;;15.60;79.90;;;;;;5047561;28;19917;-70
2022/09/23 10:24:26;;;;;;;;;;;15.60;80.10;;;;;;5046501;28;19919;-70
2022/09/23 10:26:55;;;;;;;;;;;15.70;80.00;;;;;;5044648;28;19916;-70
2022/09/23 10:29:23;;;;;;;;;;;15.70;79.90;;;;;;5044000;28;20883;-70
2022/09/23 10:31:52;;;;;;;;;;;15.70;79.80;;;;;;5044356;28;20524;-70
2022/09/23 10:34:27;;;;;;;;;;;15.80;79.80;;;;;;5027218;28;19913;-70
2022/09/23 10:36:54;;;;;;;;;;;15.90;79.70;;;;;;5045002;28;19916;-70
2022/09/23 10:48:26;;;;;;;;;;;16.10;79.20;;;;;;5045128;28;19939;-70
2022/09/23 10:50:52;;;;;;;;;;;16.20;79.10;;;;;;5027047;28;20033;-70
2022/09/23 10:53:23;;;;;;;;;;;16.20;79.00;;;;;;5044949;28;19919;-70
2022/09/23 10:55:51;;;;;;;;;;;16.30;79.00;;;;;;5040164;28;19935;-70
2022/09/23 10:58:17;;;;;;;;;;;16.30;79.20;;;;;;5045629;28;20526;-70
2022/09/23 11:00:42;;;;;;;;;;;16.30;79.10;;;;;;5043060;28;19925;-70
2022/09/23 11:03:13;;;;;;;;;;;16.40;79.10;;;;;;5044871;28;19913;-70
2022/09/23 11:05:49;;;;;;;;;;;16.40;79.00;;;;;;5044445;28;19920;-70
2022/09/23 11:08:18;;;;;;;;;;;16.50;79.70;;;;;;5044683;28;19952;-70
2022/09/23 11:10:43;;;;;;;;;;;16.50;79.20;;;;;;5044515;28;19935;-70
2022/09/23 11:13:14;;;;;;;;;;;16.50;79.00;;;;;;5044425;28;20317;-70
2022/09/23 11:15:43;;;;;;;;;;;16.50;78.90;;;;;;5044888;28;19912;-70
2022/09/23 11:18:25;;;;;;;;;;;16.60;79.10;;;;;;5045067;28;19928;-70
2022/09/23 11:20:51;;;;;;;;;;;16.60;78.80;;;;;;5044375;28;19996;-70
2022/09/23 11:23:25;;;;;;;;;;;16.60;78.80;;;;;;5043412;28;20025;-70
2022/09/23 11:25:57;;;;;;;;;;;16.70;78.70;;;;;;5041216;28;19922;-70
2022/09/23 11:28:41;;;;;;;;;;;16.80;78.50;;;;;;5044540;28;20529;-70
2022/09/23 11:31:07;;;;;;;;;;;16.90;78.30;;;;;;5044264;28;19952;-70
2022/09/23 11:33:52;;;;;;;;;;;16.90;78.30;;;;;;5044400;28;19952;-70
2022/09/23 11:36:20;;;;;;;;;;;17.00;78.30;;;;;;5045055;28;19913;-70
2022/09/23 11:38:47;;;;;;;;;;;17.10;78.00;;;;;;5045263;28;20278;-70
2022/09/23 11:41:24;;;;;;;;;;;17.10;77.70;;;;;;5044089;28;19960;-70
2022/09/23 11:44:13;;;;;;;;;;;17.20;77.50;;;;;;5038017;28;19936;-70
2022/09/23 11:46:44;;;;;;;;;;;17.30;77.70;;;;;;4999823;28;20043;-70
2022/09/23 11:49:14;;;;;;;;;;;17.40;77.30;;;;;;5048294;28;19913;-70
2022/09/23 11:51:51;;;;;;;;;;;17.50;77.20;;;;;;5047880;28;19917;-70
2022/09/23 11:54:23;;;;;;;;;;;17.50;76.90;;;;;;5044604;28;19921;-70
2022/09/23 11:56:59;;;;;;;;;;;17.60;76.90;;;;;;5047258;28;20007;-70
2022/09/23 11:59:25;;;;;;;;;;;17.60;77.00;;;;;;5048466;28;19960;-70
2022/09/23 12:01:55;;;;;;;;;;;17.80;76.80;;;;;;5048188;28;20078;-70
2022/09/23 12:04:31;;;;;;;;;;;17.90;76.50;;;;;;5047665;28;19917;-70
2022/09/23 12:07:03;;;;;;;;;;;17.90;76.10;;;;;;5047796;28;19919;-70
2022/09/23 12:09:35;;;;;;;;;;;17.90;76.20;;;;;;5047874;28;19909;-70
2022/09/23 12:12:08;;;;;;;;;;;18.00;76.30;;;;;;5047725;28;20003;-70
2022/09/23 12:14:40;;;;;;;;;;;18.00;76.50;;;;;;5048077;28;19912;-70
2022/09/23 12:17:11;;;;;;;;;;;18.00;76.50;;;;;;5047866;28;19913;-70
2022/09/23 12:19:55;;;;;;;;;;;18.00;76.50;;;;;;5047802;28;20308;-70
2022/09/23 12:22:29;;;;;;;;;;;18.00;76.60;;;;;;5051876;28;19924;-70
2022/09/23 12:24:56;;;;;;;;;;;18.00;76.60;;;;;;5045641;28;20377;-70
2022/09/23 12:27:44;;;;;;;;;;;18.10;76.60;;;;;;5047083;28;20532;-70
2022/09/23 12:30:17;;;;;;;;;;;18.20;76.50;;;;;;5047176;28;20348;-70
2022/09/23 12:32:43;;;;;;;;;;;18.20;76.50;;;;;;5046703;28;19916;-69
2022/09/23 12:35:27;;;;;;;;;;;18.20;75.70;;;;;;5046955;28;19917;-70
2022/09/23 12:37:53;;;;;;;;;;;18.30;76.40;;;;;;5046571;28;19927;-70
2022/09/23 12:40:26;;;;;;;;;;;18.30;76.50;;;;;;5045513;28;19920;-70
2022/09/23 12:42:52;;;;;;;;;;;18.30;76.00;;;;;;5046056;28;19920;-70
2022/09/23 12:45:31;;;;;;;;;;;18.30;76.50;;;;;;5045918;28;19913;-70
2022/09/23 12:48:03;;;;;;;;;;;18.30;76.80;;;;;;5046967;28;20029;-70
2022/09/23 12:50:49;;;;;;;;;;;18.30;76.60;;;;;;5040848;28;19917;-70
2022/09/23 12:53:33;;;;;;;;;;;18.30;76.30;;;;;;5046733;28;19937;-70
2022/09/23 12:55:59;;;;;;;;;;;18.30;75.70;;;;;;5046439;28;19951;-70
2022/09/23 12:58:37;;;;;;;;;;;18.30;76.80;;;;;;5044864;28;19920;-70
2022/09/23 13:01:15;;;;;;;;;;;18.30;76.60;;;;;;5044919;28;19917;-70
2022/09/23 13:06:38;;;;;;;;;;;18.30;76.50;;;;;;5045338;28;19923;-70
2022/09/23 13:09:09;;;;;;;;;;;18.30;76.70;;;;;;5045485;28;19928;-70
2022/09/23 13:11:36;;;;;;;;;;;18.20;77.20;;;;;;5044582;28;19921;-70
2022/09/23 13:14:03;;;;;;;;;;;18.20;77.20;;;;;;5045431;28;19916;-70
2022/09/23 13:16:40;;;;;;;;;;;18.20;76.90;;;;;;5045434;28;19963;-70
2022/09/23 13:19:25;;;;;;;;;;;18.20;77.20;;;;;;5045226;28;19917;-70
2022/09/23 13:21:57;;;;;;;;;;;18.20;77.50;;;;;;5040181;28;20021;-70
2022/09/23 13:24:31;;;;;;;;;;;18.20;77.50;;;;;;5043405;28;19935;-70
2022/09/23 13:27:03;;;;;;;;;;;18.20;77.30;;;;;;5044577;28;20286;-70
2022/09/23 13:29:50;;;;;;;;;;;18.20;77.60;;;;;;5038412;28;20392;-70
2022/09/23 13:32:16;;;;;;;;;;;18.10;76.50;;;;;;5045200;28;19919;-70
2022/09/23 13:34:46;;;;;;;;;;;18.10;77.20;;;;;;5044975;28;20007;-70
2022/09/23 13:37:18;;;;;;;;;;;18.10;77.00;;;;;;5045816;28;19913;-70
2022/09/23 13:39:44;;;;;;;;;;;18.10;77.30;;;;;;5045856;28;20746;-70
2022/09/23 13:42:15;;;;;;;;;;;18.10;77.10;;;;;;5045260;28;19917;-70
2022/09/23 13:44:40;;;;;;;;;;;18.10;76.30;;;;;;5045378;28;20400;-70
2022/09/23 13:47:11;;;;;;;;;;;18.10;77.70;;;;;;5045587;28;19916;-70
2022/09/23 13:49:36;;;;;;;;;;;18.10;78.20;;;;;;5045485;28;19935;-70
2022/09/23 13:52:02;;;;;;;;;;;18.00;77.60;;;;;;5043815;28;20572;-70
2022/09/23 13:54:28;;;;;;;;;;;18.00;77.90;;;;;;5045439;28;19932;-70
2022/09/23 13:56:55;;;;;;;;;;;18.00;78.00;;;;;;5044662;28;20238;-70
2022/09/23 13:59:36;;;;;;;;;;;18.00;78.10;;;;;;5027268;28;19917;-70
2022/09/23 14:02:09;;;;;;;;;;;18.00;78.10;;;;;;5044274;28;19940;-70
2022/09/23 14:04:35;;;;;;;;;;;18.00;78.10;;;;;;5043866;28;20332;-70
2022/09/23 14:07:00;;;;;;;;;;;18.00;77.50;;;;;;5044443;28;19912;-70
2022/09/23 14:09:27;;;;;;;;;;;17.90;78.00;;;;;;5043908;28;19958;-70
2022/09/23 14:11:53;;;;;;;;;;;17.90;77.80;;;;;;5043270;28;19912;-70
2022/09/23 14:14:19;;;;;;;;;;;17.90;78.00;;;;;;5044690;28;19913;-70
2022/09/23 14:16:48;;;;;;;;;;;17.90;78.00;;;;;;5045822;28;19916;-70
2022/09/23 14:19:17;;;;;;;;;;;17.90;78.20;;;;;;5039261;28;19917;-70
2022/09/23 14:21:45;;;;;;;;;;;17.90;78.20;;;;;;5044727;28;19913;-70
2022/09/23 14:24:17;;;;;;;;;;;17.90;78.50;;;;;;5044858;28;19991;-70
2022/09/23 14:26:44;;;;;;;;;;;17.90;78.30;;;;;;5044447;28;20465;-70
2022/09/23 14:29:15;;;;;;;;;;;17.90;78.60;;;;;;5044913;28;19915;-70
2022/09/23 14:31:42;;;;;;;;;;;17.90;78.40;;;;;;5047143;28;19913;-70
2022/09/23 14:34:28;;;;;;;;;;;17.80;78.50;;;;;;5045026;28;19921;-70
2022/09/23 14:39:38;;;;;;;;;;;17.80;78.30;;;;;;5045836;28;19971;-70
2022/09/23 14:42:05;;;;;;;;;;;17.80;78.20;;;;;;5045382;28;19913;-70
2022/09/23 14:44:34;;;;;;;;;;;17.80;78.70;;;;;;5045044;28;19920;-70
2022/09/23 14:46:59;;;;;;;;;;;17.80;78.30;;;;;;5027014;28;19923;-70